Time;durP1;ratioP1;P1;durP2;ratioP2;P2;SDS_P1;SDS_P2;PMS_P1;PMS_P2;Temp;Humidity;BMP_temperature;BMP_pressure;BME280_temperature;BME280_humidity;BME280_pressure;Samples;Min_cycle;Max_cycle;Signal;HPM_P1;HPM_P2
2022/03/19 02:31:00;;;;;;;58.20;41.10;;;5.30;99.90;;;;;;5130353;23;20707;-84
2022/03/19 02:33:27;;;;;;;52.90;38.42;;;5.20;99.90;;;;;;5034937;28;20214;-84
2022/03/19 02:35:54;;;;;;;50.83;37.60;;;5.20;99.90;;;;;;5035477;28;20209;-84
2022/03/19 02:38:20;;;;;;;60.45;41.90;;;5.10;99.90;;;;;;5035196;28;20205;-83
2022/03/19 02:40:47;;;;;;;57.50;38.20;;;5.00;99.90;;;;;;5054067;28;20222;-85
2022/03/19 02:43:14;;;;;;;53.75;36.05;;;5.10;99.90;;;;;;5055430;28;20209;-84
2022/03/19 02:45:41;;;;;;;58.95;38.33;;;5.10;99.90;;;;;;5054772;28;20194;-84
2022/03/19 02:48:12;;;;;;;53.50;38.75;;;5.10;99.90;;;;;;5051289;28;20198;-84
2022/03/19 02:50:39;;;;;;;50.78;37.90;;;5.10;99.90;;;;;;5054707;28;20696;-84
2022/03/19 02:53:08;;;;;;;54.80;38.30;;;5.10;99.90;;;;;;5055151;28;20225;-85
2022/03/19 02:55:37;;;;;;;45.85;36.38;;;4.90;99.90;;;;;;5055271;28;20193;-84
2022/03/19 02:58:05;;;;;;;52.40;35.58;;;5.00;99.90;;;;;;5055473;28;20630;-85
2022/03/19 03:00:33;;;;;;;50.90;39.33;;;5.00;99.90;;;;;;5054484;28;20233;-84
2022/03/19 03:03:00;;;;;;;47.60;34.38;;;5.00;99.90;;;;;;5054874;28;20237;-83
2022/03/19 03:05:28;;;;;;;42.58;34.03;;;4.90;99.90;;;;;;5054784;28;20216;-83
2022/03/19 03:07:55;;;;;;;47.70;34.35;;;5.00;99.90;;;;;;5055063;28;20225;-84
2022/03/19 03:10:21;;;;;;;47.78;36.45;;;4.90;99.90;;;;;;5054666;28;20225;-83
2022/03/19 03:12:48;;;;;;;44.33;34.28;;;4.80;99.90;;;;;;5054324;28;20198;-83
2022/03/19 03:15:15;;;;;;;56.78;38.03;;;4.90;99.90;;;;;;5054644;28;20206;-83
2022/03/19 03:17:42;;;;;;;50.10;36.53;;;5.00;99.90;;;;;;5054186;28;20663;-84
2022/03/19 03:20:10;;;;;;;47.80;36.17;;;5.00;99.90;;;;;;5054388;28;20240;-84
2022/03/19 03:22:42;;;;;;;45.13;35.60;;;5.00;99.90;;;;;;5054958;28;20282;-84
2022/03/19 03:25:09;;;;;;;56.45;38.15;;;5.00;99.90;;;;;;5054788;28;20267;-84
2022/03/19 03:27:36;;;;;;;50.13;37.22;;;4.90;99.90;;;;;;5054032;28;20221;-84
2022/03/19 03:30:04;;;;;;;44.17;35.35;;;5.00;99.90;;;;;;5054305;28;20255;-83
2022/03/19 03:32:31;;;;;;;47.75;35.28;;;4.90;99.90;;;;;;5054105;28;20205;-84
2022/03/19 03:34:58;;;;;;;52.53;39.00;;;4.90;99.90;;;;;;5054460;28;20197;-83
2022/03/19 03:37:24;;;;;;;52.47;35.97;;;4.90;99.90;;;;;;5054219;28;20573;-83
2022/03/19 03:39:52;;;;;;;46.50;33.47;;;5.00;99.90;;;;;;5054610;28;20236;-83
2022/03/19 03:42:19;;;;;;;48.75;33.58;;;5.00;99.90;;;;;;5054100;28;20220;-84
2022/03/19 03:44:46;;;;;;;46.65;34.30;;;5.00;99.90;;;;;;5054131;28;20204;-83
2022/03/19 03:47:12;;;;;;;49.40;38.60;;;5.00;99.90;;;;;;5053840;28;20233;-84
2022/03/19 03:49:39;;;;;;;39.63;34.25;;;4.90;99.90;;;;;;5054040;28;20593;-84
2022/03/19 03:52:07;;;;;;;51.30;38.60;;;4.90;99.90;;;;;;5037610;28;20205;-84
2022/03/19 03:54:34;;;;;;;42.92;33.20;;;4.90;99.90;;;;;;5054183;28;20707;-83
2022/03/19 03:57:03;;;;;;;44.03;33.63;;;4.90;99.90;;;;;;5053693;28;20201;-83
2022/03/19 03:59:31;;;;;;;49.25;35.42;;;4.90;99.90;;;;;;5053539;28;20222;-84
2022/03/19 04:01:58;;;;;;;51.33;36.15;;;4.80;99.90;;;;;;5053980;28;20248;-84
2022/03/19 04:04:25;;;;;;;48.75;34.47;;;4.80;99.90;;;;;;5054300;28;20240;-84
2022/03/19 04:06:51;;;;;;;45.70;35.50;;;4.80;99.90;;;;;;5054090;28;20221;-84
2022/03/19 04:09:18;;;;;;;43.17;33.30;;;4.80;99.90;;;;;;5053835;28;20627;-84
2022/03/19 04:11:45;;;;;;;44.25;32.80;;;4.80;99.90;;;;;;5053446;28;20206;-83
2022/03/19 04:14:13;;;;;;;47.50;32.45;;;4.70;99.90;;;;;;5053060;28;20594;-84
2022/03/19 04:16:40;;;;;;;46.30;32.75;;;4.80;99.90;;;;;;5053075;28;20207;-85
2022/03/19 04:19:07;;;;;;;46.20;33.47;;;4.80;99.90;;;;;;5054192;28;20236;-83
2022/03/19 04:21:33;;;;;;;49.83;36.10;;;4.80;99.90;;;;;;5053419;28;20204;-83
2022/03/19 04:24:01;;;;;;;49.97;37.47;;;4.70;99.90;;;;;;5054298;28;20302;-83
2022/03/19 04:26:27;;;;;;;41.17;30.88;;;4.70;99.90;;;;;;5053383;28;20217;-84
2022/03/19 04:28:54;;;;;;;49.28;35.42;;;4.60;99.90;;;;;;5053461;28;20228;-84
2022/03/19 04:31:22;;;;;;;51.78;31.90;;;4.60;99.90;;;;;;5053292;28;20669;-84
2022/03/19 04:33:49;;;;;;;48.03;33.50;;;4.60;99.90;;;;;;5037714;28;20202;-83
2022/03/19 04:36:30;;;;;;;46.55;34.85;;;4.60;99.90;;;;;;5053368;28;20205;-84
2022/03/19 04:38:57;;;;;;;46.17;31.23;;;4.60;99.90;;;;;;5053436;28;20217;-84
2022/03/19 04:41:23;;;;;;;46.97;33.80;;;4.60;99.90;;;;;;5052999;28;20201;-83
2022/03/19 04:43:51;;;;;;;45.88;34.53;;;4.60;99.90;;;;;;5052951;28;20212;-83
2022/03/19 04:46:18;;;;;;;50.28;35.00;;;4.60;99.90;;;;;;5053526;28;20206;-83
2022/03/19 04:48:46;;;;;;;50.03;34.60;;;4.50;99.90;;;;;;5059565;28;20205;-83
2022/03/19 04:51:14;;;;;;;50.13;38.40;;;4.50;99.90;;;;;;5060294;28;20679;-83
2022/03/19 04:53:41;;;;;;;41.92;32.88;;;4.40;99.90;;;;;;5057059;28;20205;-83
2022/03/19 04:56:08;;;;;;;47.00;33.95;;;4.30;99.90;;;;;;5053953;28;20207;-83
2022/03/19 04:58:35;;;;;;;48.78;34.13;;;4.30;99.90;;;;;;5053529;28;20202;-84
2022/03/19 05:01:02;;;;;;;45.10;34.70;;;4.40;99.90;;;;;;5052779;28;20568;-83
2022/03/19 05:03:29;;;;;;;40.83;32.92;;;4.40;99.90;;;;;;5052795;28;20201;-84
2022/03/19 05:05:57;;;;;;;50.03;37.67;;;4.40;99.90;;;;;;5053276;28;20213;-84
2022/03/19 05:08:24;;;;;;;49.15;34.13;;;4.40;99.90;;;;;;5053159;28;20257;-83
2022/03/19 05:13:31;;;;;;;46.58;32.78;;;4.40;99.90;;;;;;5043546;28;20201;-84
2022/03/19 05:15:58;;;;;;;45.70;37.00;;;4.30;99.90;;;;;;5053421;28;20219;-83
2022/03/19 05:18:25;;;;;;;50.17;34.40;;;4.30;99.90;;;;;;5052556;28;20207;-83
2022/03/19 05:20:52;;;;;;;49.95;34.10;;;4.40;99.90;;;;;;5052785;28;20236;-84
2022/03/19 05:23:20;;;;;;;45.30;32.10;;;4.40;99.90;;;;;;5052962;28;20205;-83
2022/03/19 05:25:47;;;;;;;41.60;32.95;;;4.40;99.90;;;;;;5052734;28;20678;-83
2022/03/19 05:28:14;;;;;;;44.08;29.67;;;4.40;99.90;;;;;;5053920;28;20229;-84
2022/03/19 05:30:41;;;;;;;38.60;31.83;;;4.40;99.90;;;;;;5056507;28;20233;-84
2022/03/19 05:33:07;;;;;;;47.20;33.20;;;4.40;99.90;;;;;;5056395;28;20667;-85
2022/03/19 05:35:35;;;;;;;51.40;34.50;;;4.30;99.90;;;;;;5060134;28;20211;-82
2022/03/19 05:38:01;;;;;;;38.20;30.50;;;4.30;99.90;;;;;;5069880;28;20228;-83
2022/03/19 05:40:29;;;;;;;43.30;32.35;;;4.20;99.90;;;;;;5068972;28;20234;-83
2022/03/19 05:42:56;;;;;;;48.53;34.85;;;4.30;99.90;;;;;;5057555;28;20228;-84
2022/03/19 05:45:23;;;;;;;48.50;33.30;;;4.30;99.90;;;;;;5057519;28;20224;-83
2022/03/19 05:47:50;;;;;;;43.20;31.35;;;4.30;99.90;;;;;;5061564;28;20317;-84
2022/03/19 05:50:18;;;;;;;46.10;33.67;;;4.30;99.90;;;;;;5067742;28;20224;-84
2022/03/19 05:52:46;;;;;;;40.25;29.92;;;4.40;99.90;;;;;;5066538;28;20198;-84
2022/03/19 05:55:13;;;;;;;51.28;36.55;;;4.40;99.90;;;;;;5057341;28;20727;-84
2022/03/19 05:57:41;;;;;;;45.72;31.55;;;4.40;99.90;;;;;;5056974;28;20578;-84
2022/03/19 06:00:09;;;;;;;41.10;29.98;;;4.40;99.90;;;;;;5056255;28;20726;-84
2022/03/19 06:02:39;;;;;;;45.63;32.90;;;4.40;99.90;;;;;;5063294;28;20304;-83
2022/03/19 06:05:07;;;;;;;42.40;32.47;;;4.50;99.90;;;;;;5066491;28;20689;-83
2022/03/19 06:07:33;;;;;;;44.08;32.13;;;4.50;99.90;;;;;;5056455;28;20228;-83
2022/03/19 06:10:00;;;;;;;37.58;29.05;;;4.50;99.90;;;;;;5056455;28;20334;-84
2022/03/19 06:12:27;;;;;;;43.28;30.48;;;4.40;99.90;;;;;;5056008;28;20624;-84
2022/03/19 06:14:55;;;;;;;45.60;30.83;;;4.40;99.90;;;;;;5055946;28;20201;-83
2022/03/19 06:17:22;;;;;;;45.55;31.58;;;4.50;99.90;;;;;;5056614;28;20272;-83
2022/03/19 06:19:49;;;;;;;39.47;30.15;;;4.60;99.90;;;;;;5056543;28;20222;-86
2022/03/19 06:22:15;;;;;;;38.08;30.23;;;4.60;99.90;;;;;;5056016;28;20565;-84
2022/03/19 06:24:42;;;;;;;41.97;34.00;;;4.70;99.90;;;;;;5056205;28;20212;-83
2022/03/19 06:27:09;;;;;;;40.85;31.60;;;4.60;99.90;;;;;;5055909;28;20225;-83
2022/03/19 06:29:36;;;;;;;45.63;30.55;;;4.60;99.90;;;;;;5055325;28;20605;-84
2022/03/19 06:32:05;;;;;;;40.95;32.60;;;4.60;99.90;;;;;;5055691;28;20201;-84
2022/03/19 06:34:32;;;;;;;40.95;29.30;;;4.70;99.90;;;;;;5055246;28;20276;-84
2022/03/19 06:39:44;;;;;;;38.45;31.27;;;4.70;99.90;;;;;;5055241;28;20708;-84
2022/03/19 06:42:11;;;;;;;34.28;29.73;;;4.90;99.90;;;;;;5055777;28;20205;-84
2022/03/19 06:44:38;;;;;;;39.70;30.52;;;4.90;99.90;;;;;;5055217;28;20198;-84
2022/03/19 06:47:07;;;;;;;34.63;29.17;;;4.90;99.90;;;;;;5055867;28;20228;-83
2022/03/19 06:49:34;;;;;;;43.00;32.35;;;5.00;99.90;;;;;;5055668;28;20228;-84
2022/03/19 06:52:01;;;;;;;39.90;30.40;;;5.00;99.90;;;;;;5054912;28;20585;-85
2022/03/19 06:54:28;;;;;;;37.55;30.80;;;5.10;99.90;;;;;;5054968;28;20220;-84
2022/03/19 06:56:55;;;;;;;38.35;28.80;;;5.20;99.90;;;;;;5055232;28;20281;-84
2022/03/19 06:59:22;;;;;;;45.70;29.55;;;5.30;99.90;;;;;;5055085;28;20225;-85
2022/03/19 07:01:49;;;;;;;46.15;32.85;;;5.40;99.90;;;;;;5054283;28;20205;-84
2022/03/19 07:04:17;;;;;;;36.08;28.13;;;5.40;99.90;;;;;;5054203;28;20663;-84
2022/03/19 07:06:44;;;;;;;41.10;30.23;;;5.50;99.90;;;;;;5055064;28;20217;-85
2022/03/19 07:09:11;;;;;;;35.17;27.02;;;5.60;99.90;;;;;;5054257;28;20225;-83
2022/03/19 07:11:39;;;;;;;40.85;30.90;;;5.70;99.90;;;;;;5054467;28;20212;-83
2022/03/19 07:14:10;;;;;;;37.55;27.55;;;5.70;99.90;;;;;;5054646;28;20205;-83
2022/03/19 07:16:37;;;;;;;36.25;29.88;;;5.90;99.90;;;;;;5054979;28;20214;-85
2022/03/19 07:19:04;;;;;;;35.90;31.30;;;5.90;99.90;;;;;;5054982;28;20296;-84
2022/03/19 07:21:32;;;;;;;38.13;29.27;;;6.00;99.90;;;;;;5054137;28;20244;-84
2022/03/19 07:23:59;;;;;;;43.47;30.67;;;6.20;99.90;;;;;;5054542;28;20213;-84
2022/03/19 07:26:27;;;;;;;36.55;29.27;;;6.20;99.90;;;;;;5055239;28;20216;-83
2022/03/19 07:28:53;;;;;;;39.13;29.63;;;6.30;99.90;;;;;;5058439;28;20299;-84
2022/03/19 07:31:20;;;;;;;39.00;31.33;;;6.20;99.90;;;;;;5054729;28;20217;-83
2022/03/19 07:33:50;;;;;;;35.00;26.90;;;6.30;99.90;;;;;;5058895;28;20201;-84
2022/03/19 07:36:18;;;;;;;36.50;29.05;;;6.40;99.90;;;;;;5061777;28;20213;-84
2022/03/19 07:38:46;;;;;;;42.47;30.20;;;6.40;99.90;;;;;;5058885;28;20616;-85
2022/03/19 07:43:59;;;;;;;34.90;27.48;;;6.50;99.90;;;;;;5054771;28;20209;-83
2022/03/19 07:46:27;;;;;;;35.90;26.70;;;6.60;99.90;;;;;;5053868;28;20678;-84
2022/03/19 07:48:54;;;;;;;34.83;27.50;;;6.60;99.90;;;;;;5054448;28;20230;-83
2022/03/19 07:51:21;;;;;;;34.33;27.88;;;6.70;99.90;;;;;;5052543;28;20675;-83
2022/03/19 07:53:49;;;;;;;35.10;27.52;;;6.80;99.90;;;;;;5054219;28;20212;-83
2022/03/19 07:56:16;;;;;;;36.53;27.98;;;6.80;99.90;;;;;;5053516;28;20647;-84
2022/03/19 07:58:42;;;;;;;31.33;27.02;;;6.80;99.90;;;;;;5034482;28;20206;-83
2022/03/19 08:01:09;;;;;;;36.30;26.67;;;6.80;99.50;;;;;;5049727;28;20201;-85
2022/03/19 08:03:36;;;;;;;33.38;25.23;;;6.80;99.20;;;;;;5053996;28;20206;-83
2022/03/19 08:06:03;;;;;;;31.17;26.10;;;6.90;99.20;;;;;;5053589;28;20202;-83
2022/03/19 08:08:45;;;;;;;37.60;27.25;;;7.10;99.40;;;;;;5054150;28;20225;-83
2022/03/19 08:11:56;;;;;;;33.78;24.27;;;7.20;99.00;;;;;;5051766;28;20666;-83
2022/03/19 08:14:39;;;;;;;29.02;25.83;;;7.20;98.00;;;;;;5042158;28;20202;-84
2022/03/19 08:17:07;;;;;;;31.27;25.23;;;7.30;97.60;;;;;;5056896;28;20210;-84
2022/03/19 08:19:33;;;;;;;38.22;26.45;;;7.40;97.70;;;;;;5058618;28;20224;-84
2022/03/19 08:22:00;;;;;;;27.88;22.95;;;7.40;96.70;;;;;;5057965;28;20582;-84
2022/03/19 08:24:28;;;;;;;33.80;24.73;;;7.50;96.60;;;;;;5057733;28;20213;-84
2022/03/19 08:26:55;;;;;;;25.90;22.17;;;7.50;96.20;;;;;;5057578;28;20198;-84
2022/03/19 08:29:24;;;;;;;34.63;24.85;;;7.70;96.30;;;;;;5074154;22;20276;-79
2022/03/19 08:31:52;;;;;;;28.40;23.48;;;7.70;95.30;;;;;;5021486;28;20199;-79
2022/03/19 08:34:19;;;;;;;26.20;22.60;;;7.90;95.70;;;;;;5020669;28;20206;-81
2022/03/19 08:36:46;;;;;;;27.13;22.98;;;7.90;94.90;;;;;;5029821;28;20234;-81
2022/03/19 08:41:58;;;;;;;26.63;23.17;;;8.00;93.70;;;;;;5022959;28;20262;-81
2022/03/19 08:44:25;;;;;;;29.15;21.67;;;8.20;94.10;;;;;;5032766;28;20230;-80
2022/03/19 08:46:53;;;;;;;30.85;26.23;;;8.20;93.40;;;;;;5032539;28;20222;-81
2022/03/19 08:49:20;;;;;;;26.33;22.92;;;8.30;93.60;;;;;;5026246;28;20230;-81
2022/03/19 08:51:47;;;;;;;28.45;23.10;;;8.30;93.10;;;;;;5030576;28;20199;-79
2022/03/19 08:54:16;;;;;;;23.40;20.42;;;8.40;93.30;;;;;;5038869;28;20210;-79
2022/03/19 08:56:43;;;;;;;24.15;21.63;;;8.50;92.60;;;;;;5043604;28;20198;-81
2022/03/19 08:59:10;;;;;;;27.38;20.90;;;8.40;91.60;;;;;;5040622;28;20205;-78
2022/03/19 09:01:38;;;;;;;24.05;21.42;;;8.40;91.70;;;;;;5038917;28;20206;-81
2022/03/19 09:04:06;;;;;;;22.40;20.05;;;8.60;92.40;;;;;;5037903;28;20461;-79
2022/03/19 09:06:34;;;;;;;25.30;20.65;;;8.70;91.50;;;;;;5046350;28;20690;-80
2022/03/19 09:09:03;;;;;;;27.52;23.10;;;8.70;91.10;;;;;;5048582;28;20225;-82
2022/03/19 09:11:31;;;;;;;23.70;21.15;;;8.80;90.90;;;;;;5053028;28;20210;-81
2022/03/19 09:13:58;;;;;;;22.33;19.77;;;8.90;90.80;;;;;;5045741;28;20268;-81
2022/03/19 09:16:25;;;;;;;24.58;19.40;;;8.90;90.40;;;;;;5046997;28;20419;-78
2022/03/19 09:18:53;;;;;;;24.65;20.77;;;9.00;90.50;;;;;;5039836;28;20192;-79
2022/03/19 09:21:21;;;;;;;28.73;21.38;;;9.00;90.00;;;;;;5026317;28;20227;-79
2022/03/19 09:23:49;;;;;;;25.25;20.40;;;9.20;90.10;;;;;;5028368;28;20211;-80
2022/03/19 09:26:16;;;;;;;23.98;20.80;;;9.30;90.10;;;;;;5029213;28;20234;-80
2022/03/19 09:28:43;;;;;;;25.75;22.50;;;9.40;89.60;;;;;;5028636;28;20215;-79
2022/03/19 09:31:10;;;;;;;27.67;22.50;;;9.50;89.10;;;;;;5032439;28;20231;-81
2022/03/19 09:33:39;;;;;;;23.63;20.90;;;9.50;89.70;;;;;;5034872;28;20207;-78
2022/03/19 09:36:07;;;;;;;26.40;21.85;;;9.50;88.30;;;;;;5029072;28;20231;-80
2022/03/19 09:38:36;;;;;;;29.30;22.10;;;9.60;88.40;;;;;;5029243;28;20574;-78
2022/03/19 09:41:02;;;;;;;24.10;21.05;;;9.70;87.40;;;;;;5024744;28;20295;-80
2022/03/19 09:43:30;;;;;;;27.33;23.30;;;9.80;88.20;;;;;;5025864;28;20208;-78
2022/03/19 09:45:57;;;;;;;25.48;21.52;;;9.80;87.40;;;;;;5031935;28;20204;-80
2022/03/19 09:48:24;;;;;;;31.13;24.50;;;9.90;87.70;;;;;;5027696;28;20228;-78
2022/03/19 09:50:51;;;;;;;24.27;20.77;;;10.10;87.40;;;;;;5026556;28;20464;-80
2022/03/19 09:53:20;;;;;;;32.80;24.63;;;10.10;87.20;;;;;;5029239;28;20444;-80
2022/03/19 09:55:48;;;;;;;26.67;21.23;;;10.20;86.10;;;;;;5025506;28;20208;-80
2022/03/19 09:58:16;;;;;;;25.60;22.20;;;10.20;86.20;;;;;;5023003;28;20200;-79
2022/03/19 10:00:43;;;;;;;25.73;22.90;;;10.40;86.00;;;;;;5021814;28;21004;-79
2022/03/19 10:03:11;;;;;;;26.93;24.00;;;10.50;86.10;;;;;;5022720;28;20210;-79
2022/03/19 10:08:37;;;;;;;30.30;21.80;;;10.70;85.80;;;;;;5019105;28;20479;-82
2022/03/19 10:11:06;;;;;;;27.40;23.40;;;10.90;85.60;;;;;;4998653;28;20479;-78
2022/03/19 10:13:33;;;;;;;27.87;22.27;;;11.00;83.60;;;;;;5000360;28;20467;-79
2022/03/19 10:16:00;;;;;;;24.60;21.60;;;10.80;81.80;;;;;;5018851;28;20471;-80
2022/03/19 10:18:50;;;;;;;27.63;22.23;;;10.90;84.80;;;;;;5020831;28;20453;-82
2022/03/19 10:21:56;;;;;;;;;;;;;;;;;;;;;
2022/03/19 10:24:25;;;;;;;27.93;21.93;;;11.20;84.90;;;;;;5008945;28;20519;-80
2022/03/19 10:26:53;;;;;;;25.90;22.50;;;11.40;84.00;;;;;;5018475;28;20459;-84
2022/03/19 10:29:42;;;;;;;27.63;23.20;;;11.50;85.40;;;;;;5014688;28;20488;-85
2022/03/19 10:38:54;;;;;;;28.23;25.33;;;11.40;85.30;;;;;;5019975;28;20448;-83
2022/03/19 10:41:20;;;;;;;28.00;24.60;;;11.50;88.50;;;;;;5022164;28;20523;-82
2022/03/19 10:43:49;;;;;;;29.37;26.27;;;11.60;91.60;;;;;;4999577;28;20450;-79
2022/03/19 10:46:18;;;;;;;29.53;24.87;;;11.70;90.50;;;;;;5008379;28;20460;-80
2022/03/19 10:48:49;;;;;;;30.33;24.47;;;11.80;91.40;;;;;;5017898;28;20498;-79
2022/03/19 10:51:17;;;;;;;32.63;23.73;;;11.70;88.40;;;;;;5017349;28;20485;-80
2022/03/19 10:53:44;;;;;;;26.70;23.47;;;11.90;86.20;;;;;;5017785;28;20458;-80
2022/03/19 10:56:12;;;;;;;27.00;24.10;;;12.10;85.60;;;;;;5016818;28;20454;-79
2022/03/19 10:58:39;;;;;;;28.50;25.50;;;12.20;84.80;;;;;;5016625;28;20965;-80
2022/03/19 11:01:08;;;;;;;31.53;26.67;;;12.40;84.90;;;;;;5016550;28;20482;-79
2022/03/19 11:03:38;;;;;;;29.47;26.27;;;12.70;82.40;;;;;;5011523;28;20572;-78
2022/03/19 11:06:06;;;;;;;31.97;25.27;;;12.90;80.60;;;;;;5017904;28;20450;-79
2022/03/19 11:08:38;;;;;;;27.73;24.90;;;12.90;80.40;;;;;;5016939;28;20482;-81
2022/03/19 11:11:10;;;;;;;30.23;26.93;;;13.40;81.30;;;;;;5017442;28;20845;-81
2022/03/19 11:13:41;;;;;;;29.57;26.53;;;14.10;84.20;;;;;;5016102;28;20451;-79
2022/03/19 11:16:11;;;;;;;29.97;25.33;;;14.70;83.10;;;;;;5016126;28;20545;-79
2022/03/19 11:18:40;;;;;;;28.70;25.37;;;15.10;77.50;;;;;;5016566;28;20533;-81
2022/03/19 11:21:08;;;;;;;30.83;26.63;;;15.60;77.80;;;;;;5016540;28;20471;-81
2022/03/19 11:23:49;;;;;;;30.90;27.60;;;16.00;73.90;;;;;;5016646;28;20458;-81
2022/03/19 11:26:22;;;;;;;31.00;26.53;;;16.30;72.50;;;;;;5014805;28;20453;-81
2022/03/19 11:28:49;;;;;;;27.10;24.20;;;16.00;69.70;;;;;;4997914;28;21007;-78
2022/03/19 11:31:24;;;;;;;25.93;23.40;;;16.10;72.60;;;;;;5016083;28;20509;-79
2022/03/19 11:33:51;;;;;;;27.20;23.13;;;16.20;69.20;;;;;;5016240;28;20449;-79
2022/03/19 11:36:17;;;;;;;24.33;21.90;;;15.80;65.90;;;;;;5015937;28;20458;-79
2022/03/19 11:38:52;;;;;;;21.00;18.80;;;15.60;65.50;;;;;;5015870;28;20451;-79
2022/03/19 11:41:23;;;;;;;22.27;19.17;;;15.30;64.10;;;;;;5015177;28;20477;-81
2022/03/19 11:43:50;;;;;;;20.10;15.33;;;14.60;64.30;;;;;;5015173;28;20523;-80
2022/03/19 11:46:18;;;;;;;20.20;15.50;;;14.00;59.80;;;;;;5014231;28;20468;-79
2022/03/19 11:48:50;;;;;;;16.60;13.40;;;14.20;64.00;;;;;;5013970;28;20501;-80
2022/03/19 11:51:28;;;;;;;12.90;11.60;;;14.60;63.60;;;;;;5014068;28;20470;-79
2022/03/19 11:53:56;;;;;;;15.73;14.07;;;15.20;60.60;;;;;;5013819;28;20458;-79
2022/03/19 11:56:24;;;;;;;17.00;13.17;;;15.40;59.90;;;;;;5014317;28;20461;-80
2022/03/19 11:58:52;;;;;;;14.03;12.53;;;15.30;58.50;;;;;;5014219;28;20459;-80
2022/03/19 12:01:46;;;;;;;12.63;11.10;;;15.70;59.10;;;;;;5014303;28;20469;-80
2022/03/19 12:04:14;;;;;;;12.53;10.53;;;16.50;59.10;;;;;;5014652;28;20494;-79
2022/03/19 12:06:51;;;;;;;14.30;12.43;;;17.70;58.00;;;;;;5013573;28;20460;-80
2022/03/19 12:09:18;;;;;;;14.00;12.50;;;18.00;54.30;;;;;;5014046;28;20496;-79
2022/03/19 12:12:06;;;;;;;16.20;14.60;;;18.30;55.10;;;;;;5013918;28;20464;-79
2022/03/19 12:14:33;;;;;;;17.30;14.60;;;17.90;54.30;;;;;;5014539;28;20458;-80
2022/03/19 12:19:58;;;;;;;13.60;12.00;;;17.60;55.20;;;;;;5131921;27;20536;-79
2022/03/19 12:22:34;;;;;;;14.97;13.20;;;17.10;55.30;;;;;;5132563;27;20499;-79
2022/03/19 12:25:11;;;;;;;14.53;13.10;;;16.90;55.20;;;;;;5127467;28;20454;-79
2022/03/19 12:27:38;;;;;;;13.87;12.30;;;16.90;54.90;;;;;;5132574;28;20446;-79
2022/03/19 12:30:06;;;;;;;12.30;11.00;;;17.20;54.20;;;;;;5148476;22;20448;-78
2022/03/19 12:32:45;;;;;;;13.23;11.60;;;17.30;53.00;;;;;;5092420;28;20488;-78
2022/03/19 12:35:14;;;;;;;11.87;9.60;;;17.20;52.50;;;;;;5092979;28;20457;-78
2022/03/19 12:37:48;;;;;;;13.43;12.23;;;17.80;53.60;;;;;;5092885;28;20827;-79
2022/03/19 12:40:19;;;;;;;12.70;11.40;;;18.60;51.90;;;;;;5097385;28;20469;-78
2022/03/19 12:42:52;;;;;;;10.27;9.27;;;19.50;51.60;;;;;;5114230;28;20455;-79
2022/03/19 12:45:19;;;;;;;13.10;11.47;;;19.30;46.60;;;;;;5113644;28;20798;-78
2022/03/19 12:47:51;;;;;;;11.03;9.93;;;18.60;46.50;;;;;;5113851;28;20458;-80
2022/03/19 12:50:19;;;;;;;10.53;9.53;;;17.60;45.80;;;;;;5115153;28;20479;-78
2022/03/19 12:52:47;;;;;;;11.07;9.90;;;17.40;47.20;;;;;;5115067;28;20874;-81
2022/03/19 12:55:20;;;;;;;11.03;9.70;;;17.40;48.10;;;;;;5114225;28;20449;-81
2022/03/19 12:58:04;;;;;;;12.13;10.03;;;17.20;48.20;;;;;;5115022;28;20469;-83
2022/03/19 13:00:31;;;;;;;13.40;11.47;;;17.00;49.10;;;;;;5114322;28;20488;-80
2022/03/19 13:02:58;;;;;;;11.77;9.57;;;17.20;49.70;;;;;;5122891;28;20970;-81
2022/03/19 13:05:26;;;;;;;11.70;10.37;;;18.00;49.60;;;;;;5123376;28;20458;-82
2022/03/19 13:08:07;;;;;;;12.63;10.03;;;19.00;48.60;;;;;;5122572;28;20464;-81
2022/03/19 13:10:46;;;;;;;10.87;9.77;;;20.00;46.20;;;;;;5123363;28;21029;-82
2022/03/19 13:13:14;;;;;;;11.70;10.60;;;20.70;46.00;;;;;;5119378;28;20445;-78
2022/03/19 13:15:48;;;;;;;12.30;11.00;;;20.40;43.30;;;;;;5117481;28;20445;-79
2022/03/19 13:18:27;;;;;;;9.67;8.67;;;19.40;42.20;;;;;;5117491;28;20484;-83
2022/03/19 13:21:04;;;;;;;10.73;8.97;;;18.20;43.20;;;;;;5117504;28;20468;-83
2022/03/19 13:23:38;;;;;;;9.00;7.73;;;17.70;44.80;;;;;;5117498;28;20467;-85
2022/03/19 13:26:05;;;;;;;10.20;9.10;;;17.60;44.30;;;;;;5096716;28;20831;-86
2022/03/19 13:28:35;;;;;;;11.50;10.10;;;16.80;44.00;;;;;;5095673;28;20477;-86
2022/03/19 13:31:09;;;;;;;9.10;8.20;;;16.40;45.80;;;;;;5084150;28;20489;-86
2022/03/19 13:33:38;;;;;;;11.17;9.80;;;15.40;47.00;;;;;;5101892;28;20457;-87
2022/03/19 13:36:10;;;;;;;11.10;10.10;;;14.90;47.30;;;;;;5101686;28;20478;-86
2022/03/19 13:38:43;;;;;;;10.10;8.43;;;14.70;47.80;;;;;;5100968;28;20486;-86
2022/03/19 13:41:18;;;;;;;13.17;8.67;;;14.70;47.90;;;;;;5101497;28;20819;-86
2022/03/19 13:43:47;;;;;;;8.60;7.60;;;14.90;48.70;;;;;;5101229;28;20546;-86
2022/03/19 13:46:20;;;;;;;11.37;9.30;;;15.00;48.70;;;;;;5101620;28;20443;-87
2022/03/19 13:48:49;;;;;;;7.80;7.00;;;15.00;48.30;;;;;;5102219;28;20538;-84
2022/03/19 13:51:20;;;;;;;8.37;7.20;;;14.90;47.80;;;;;;5100599;28;20839;-85
2022/03/19 13:54:02;;;;;;;8.50;7.63;;;15.20;47.10;;;;;;5101682;28;20450;-85
2022/03/19 13:56:55;;;;;;;7.53;6.60;;;15.40;47.10;;;;;;5098231;28;20490;-86
2022/03/19 13:59:33;;;;;;;7.90;7.10;;;15.80;46.10;;;;;;5102616;28;20864;-86
2022/03/19 14:02:04;;;;;;;6.87;5.80;;;16.00;46.00;;;;;;5103479;28;20881;-86
2022/03/19 14:04:35;;;;;;;7.27;6.23;;;16.20;45.70;;;;;;5105024;28;20644;-86
2022/03/19 14:07:07;;;;;;;7.60;6.30;;;16.10;44.90;;;;;;5104051;28;20963;-85
2022/03/19 14:09:34;;;;;;;8.33;7.00;;;16.10;45.30;;;;;;5102334;28;20439;-85
2022/03/19 14:12:01;;;;;;;8.23;7.30;;;16.00;45.10;;;;;;5100544;28;20530;-86
2022/03/19 14:14:35;;;;;;;6.83;6.10;;;15.90;45.10;;;;;;5101577;28;20459;-84
2022/03/19 14:17:02;;;;;;;7.93;6.10;;;15.90;44.80;;;;;;5105118;28;20449;-85
2022/03/19 14:19:54;;;;;;;7.90;5.83;;;15.90;45.70;;;;;;5106561;28;20490;-83
2022/03/19 14:22:22;;;;;;;7.23;6.53;;;15.80;45.90;;;;;;5093808;28;20454;-82
2022/03/19 14:24:49;;;;;;;7.27;5.70;;;15.60;45.90;;;;;;5106746;28;20451;-83
2022/03/19 14:27:16;;;;;;;6.90;5.50;;;15.20;45.00;;;;;;5105920;28;20459;-85
2022/03/19 14:29:43;;;;;;;8.17;5.53;;;15.20;46.10;;;;;;5107636;28;20628;-85
2022/03/19 14:32:11;;;;;;;5.97;5.37;;;15.70;45.80;;;;;;5107002;28;20505;-85
2022/03/19 14:34:37;;;;;;;6.90;5.97;;;16.30;45.70;;;;;;5106962;28;20445;-84
2022/03/19 14:37:04;;;;;;;5.80;5.20;;;16.10;43.80;;;;;;5106310;28;20547;-83
2022/03/19 14:39:32;;;;;;;5.67;4.67;;;16.00;44.80;;;;;;5101632;28;20497;-84
2022/03/19 14:42:00;;;;;;;7.40;5.43;;;15.50;44.50;;;;;;5103088;28;20470;-83
2022/03/19 14:44:27;;;;;;;5.93;4.13;;;15.40;45.90;;;;;;5100420;28;21024;-85
2022/03/19 14:46:53;;;;;;;5.57;4.23;;;15.20;46.40;;;;;;5102653;28;20447;-83
2022/03/19 14:49:20;;;;;;;5.80;4.27;;;15.10;46.60;;;;;;5102754;28;20443;-84
2022/03/19 14:51:47;;;;;;;4.53;3.97;;;15.10;47.00;;;;;;5110673;28;20481;-84
2022/03/19 14:54:14;;;;;;;6.37;4.50;;;14.80;44.70;;;;;;5110716;28;20449;-84
2022/03/19 14:56:43;;;;;;;5.40;4.90;;;14.60;44.80;;;;;;5104594;28;20450;-86
2022/03/19 14:59:10;;;;;;;7.57;5.80;;;14.50;45.70;;;;;;5102873;28;20480;-84
2022/03/19 15:01:37;;;;;;;4.60;4.20;;;14.40;46.10;;;;;;5101965;28;20471;-85
2022/03/19 15:04:04;;;;;;;5.13;4.60;;;14.50;46.20;;;;;;5100732;28;20451;-84
2022/03/19 15:06:31;;;;;;;5.60;4.20;;;14.60;46.60;;;;;;5104801;28;20459;-84
2022/03/19 15:08:58;;;;;;;4.47;3.60;;;14.60;45.70;;;;;;5100771;28;20442;-85
2022/03/19 15:11:27;;;;;;;5.70;5.20;;;14.50;45.40;;;;;;5100715;28;20462;-84
2022/03/19 15:13:56;;;;;;;7.40;4.97;;;14.30;45.30;;;;;;5101519;28;20434;-85
2022/03/19 15:16:23;;;;;;;5.37;3.80;;;14.20;45.80;;;;;;5103851;28;20488;-85
2022/03/19 15:18:52;;;;;;;5.53;3.83;;;13.70;45.50;;;;;;5100979;28;20509;-86
2022/03/19 15:21:19;;;;;;;5.00;4.50;;;13.70;46.20;;;;;;5101230;28;20886;-84
2022/03/19 15:23:46;;;;;;;4.23;3.93;;;13.20;45.80;;;;;;5103353;28;20450;-84
2022/03/19 15:26:13;;;;;;;5.57;4.47;;;13.20;46.70;;;;;;5100770;28;20446;-85
2022/03/19 15:28:40;;;;;;;3.97;3.57;;;13.50;47.60;;;;;;5100877;28;20446;-85
2022/03/19 15:31:08;;;;;;;5.10;4.30;;;13.90;46.50;;;;;;5102072;28;20542;-86
2022/03/19 15:33:35;;;;;;;3.33;3.03;;;14.10;45.60;;;;;;5100492;28;20450;-86
2022/03/19 15:36:06;;;;;;;7.07;4.83;;;14.20;45.00;;;;;;5106436;28;20494;-83
2022/03/19 15:38:33;;;;;;;5.10;4.47;;;13.80;45.60;;;;;;5105820;28;21027;-84
2022/03/19 15:41:00;;;;;;;4.63;4.23;;;13.50;47.20;;;;;;5097864;28;20471;-84